Rhapsody Of The Seas — C6UA2 — position and weather

sailwx.info

Track history (hours):
 
Tides and Currents Weather Stations Pressure Air Temp Water Temp Dewpoint Dewpoint Depression Visibility Wind Speed Wind Dir Waves Ship Positions

Rhapsody Of The Seas

Last reported at 2017-Mar-25 22:33 UTC. Time now 2017-Mar-30 04:55 UTC.
Position N 27°36' W 082°44'.

Type: Passenger vessel. MMSI: 311805000.

Date/timePositionNaut miles runAvg speedWind from/ knotsBaromVisibWave heightAir tempDewpointWater temp
2017-Mar-25 22:33N 27°36' W 082°44'1514.6
2017-Mar-25 21:33N 27°45' W 082°31'1110.7
2017-Mar-25 20:33N 27°55' W 082°27'1 1.2
2017-Mar-25 19:32N 27°57' W 082°27'0 0.0
2017-Mar-25 18:32N 27°57' W 082°27'0 0.0
2017-Mar-25 17:32N 27°57' W 082°27'0 0.0
2017-Mar-25 16:32N 27°57' W 082°27'0 0.0
2017-Mar-25 15:32N 27°57' W 082°27'0 0.0
2017-Mar-25 14:32N 27°57' W 082°27'0 0.0
2017-Mar-25 13:32N 27°57' W 082°27'0 0.0
2017-Mar-25 12:32N 27°57' W 082°27'0 0.0
2017-Mar-25 11:32N 27°57' W 082°27'0 0.3
2017-Mar-25 10:33N 27°56' W 082°27'7 7.2
2017-Mar-25 09:34N 27°49' W 082°27'1413.5
2017-Mar-25 08:32N 27°39' W 082°37'  
2017-Mar-22 23:32N 20°29' W 087°01'4 4.0
2017-Mar-22 22:33N 20°31' W 086°57'0 0.0
2017-Mar-22 21:34N 20°31' W 086°57'0 0.0
2017-Mar-22 20:33N 20°31' W 086°57'0 0.0
2017-Mar-22 19:34N 20°31' W 086°57'0 0.0
2017-Mar-22 18:34N 20°31' W 086°57'0 0.0
2017-Mar-22 17:33N 20°31' W 086°57'0 0.0
2017-Mar-22 16:34N 20°31' W 086°57'0 0.0
2017-Mar-22 15:33N 20°31' W 086°57'0 0.0
2017-Mar-22 14:34N 20°31' W 086°57'0 0.0
2017-Mar-22 13:33N 20°31' W 086°57'0 0.2
2017-Mar-22 12:33N 20°31' W 086°57'  
2017-Mar-18 22:12N 27°38' W 082°38'914.5
2017-Mar-18 21:33N 27°45' W 082°31'1110.8
2017-Mar-18 20:34N 27°55' W 082°27'2 1.6
2017-Mar-18 19:32N 27°57' W 082°27'0 0.0
2017-Mar-18 18:29N 27°57' W 082°27'0 0.0
2017-Mar-18 17:32N 27°57' W 082°27'0 0.0
2017-Mar-18 16:32N 27°57' W 082°27'0 0.0
2017-Mar-18 15:32N 27°57' W 082°27'0 0.0
2017-Mar-18 14:32N 27°57' W 082°27'0 0.0
2017-Mar-18 13:32N 27°57' W 082°27'0 0.0
2017-Mar-18 12:32N 27°57' W 082°27'0 0.0
2017-Mar-18 11:32N 27°57' W 082°27'3 2.6
2017-Mar-18 10:33N 27°54' W 082°26'9 9.0
2017-Mar-18 09:34N 27°46' W 082°31'49614.2
2017-Mar-16 22:34N 20°34' W 086°58'5 4.8
2017-Mar-16 21:29N 20°29' W 086°59'0 0.0
2017-Mar-16 20:26N 20°29' W 086°59'0 0.0
2017-Mar-16 19:32N 20°29' W 086°59'0 0.0
2017-Mar-16 18:32N 20°29' W 086°59'0 0.0
2017-Mar-16 17:32N 20°29' W 086°59'0 0.0
2017-Mar-16 16:29N 20°29' W 086°59'0 0.0
2017-Mar-16 15:32N 20°29' W 086°59'0 0.0
2017-Mar-16 14:32N 20°29' W 086°59'0 0.0
2017-Mar-16 13:32N 20°29' W 086°59'0 0.0
2017-Mar-16 12:32N 20°29' W 086°59'0 0.2
2017-Mar-16 11:34N 20°29' W 086°59'5 4.6
2017-Mar-16 10:34N 20°28' W 087°03'2810.9
2017-Mar-16 08:00N 20°00' W 087°06'   050 / 321025.0 23.0 26.0
Track history (hours):
 
Tides and Currents Weather Stations Pressure Air Temp Water Temp Dewpoint Dewpoint Depression Visibility Wind Speed Wind Dir Waves Ship Positions

Rhapsody Of The Seas

Last reported at 2017-Mar-25 22:33 UTC. Time now 2017-Mar-30 04:55 UTC.
Position N 27°36' W 082°44'.

Type: Passenger vessel. MMSI: 311805000.

Date/timePositionNaut miles runAvg speedWind from/ knotsBaromVisibWave heightAir tempDewpointWater temp
2017-Mar-25 22:33N 27°36' W 082°44'1514.6
2017-Mar-25 21:33N 27°45' W 082°31'1110.7
2017-Mar-25 20:33N 27°55' W 082°27'1 1.2
2017-Mar-25 19:32N 27°57' W 082°27'0 0.0
2017-Mar-25 18:32N 27°57' W 082°27'0 0.0
2017-Mar-25 17:32N 27°57' W 082°27'0 0.0
2017-Mar-25 16:32N 27°57' W 082°27'0 0.0
2017-Mar-25 15:32N 27°57' W 082°27'0 0.0
2017-Mar-25 14:32N 27°57' W 082°27'0 0.0
2017-Mar-25 13:32N 27°57' W 082°27'0 0.0
2017-Mar-25 12:32N 27°57' W 082°27'0 0.0
2017-Mar-25 11:32N 27°57' W 082°27'0 0.3
2017-Mar-25 10:33N 27°56' W 082°27'7 7.2
2017-Mar-25 09:34N 27°49' W 082°27'1413.5
2017-Mar-25 08:32N 27°39' W 082°37'  
2017-Mar-22 23:32N 20°29' W 087°01'4 4.0
2017-Mar-22 22:33N 20°31' W 086°57'0 0.0
2017-Mar-22 21:34N 20°31' W 086°57'0 0.0
2017-Mar-22 20:33N 20°31' W 086°57'0 0.0
2017-Mar-22 19:34N 20°31' W 086°57'0 0.0
2017-Mar-22 18:34N 20°31' W 086°57'0 0.0
2017-Mar-22 17:33N 20°31' W 086°57'0 0.0
2017-Mar-22 16:34N 20°31' W 086°57'0 0.0
2017-Mar-22 15:33N 20°31' W 086°57'0 0.0
2017-Mar-22 14:34N 20°31' W 086°57'0 0.0
2017-Mar-22 13:33N 20°31' W 086°57'0 0.2
2017-Mar-22 12:33N 20°31' W 086°57'  
2017-Mar-18 22:12N 27°38' W 082°38'914.5
2017-Mar-18 21:33N 27°45' W 082°31'1110.8
2017-Mar-18 20:34N 27°55' W 082°27'2 1.6
2017-Mar-18 19:32N 27°57' W 082°27'0 0.0
2017-Mar-18 18:29N 27°57' W 082°27'0 0.0
2017-Mar-18 17:32N 27°57' W 082°27'0 0.0
2017-Mar-18 16:32N 27°57' W 082°27'0 0.0
2017-Mar-18 15:32N 27°57' W 082°27'0 0.0
2017-Mar-18 14:32N 27°57' W 082°27'0 0.0
2017-Mar-18 13:32N 27°57' W 082°27'0 0.0
2017-Mar-18 12:32N 27°57' W 082°27'0 0.0
2017-Mar-18 11:32N 27°57' W 082°27'3 2.6
2017-Mar-18 10:33N 27°54' W 082°26'9 9.0
2017-Mar-18 09:34N 27°46' W 082°31'49614.2
2017-Mar-16 22:34N 20°34' W 086°58'5 4.8
2017-Mar-16 21:29N 20°29' W 086°59'0 0.0
2017-Mar-16 20:26N 20°29' W 086°59'0 0.0
2017-Mar-16 19:32N 20°29' W 086°59'0 0.0
2017-Mar-16 18:32N 20°29' W 086°59'0 0.0
2017-Mar-16 17:32N 20°29' W 086°59'0 0.0
2017-Mar-16 16:29N 20°29' W 086°59'0 0.0
2017-Mar-16 15:32N 20°29' W 086°59'0 0.0
2017-Mar-16 14:32N 20°29' W 086°59'0 0.0
2017-Mar-16 13:32N 20°29' W 086°59'0 0.0
2017-Mar-16 12:32N 20°29' W 086°59'0 0.2
2017-Mar-16 11:34N 20°29' W 086°59'5 4.6
2017-Mar-16 10:34N 20°28' W 087°03'2810.9
2017-Mar-16 08:00N 20°00' W 087°06'   050 / 321025.0 23.0 26.0

Dump ship's entire track history